This is the latest recevied weather packets stored in our database for station/object N5CNB. If no packets are shown the sender has not sent any weather packets the latest 10 day(s).
| Time | Temp. | Humidity | Pressure | Rain* | Wind** | Luminosity | Snow |
|---|---|---|---|---|---|---|---|
| 1777908608 | 23.33° C | 70% | 1016.1 hPa | 0 mm | - | - | - |
| 1777907717 | 22.78° C | 70% | 1016 hPa | 0 mm | - | - | - |
| 1777906819 | 22.22° C | 73% | 1015.9 hPa | 0 mm | - | - | - |
| 1777905924 | 22.22° C | 72% | 1016 hPa | 0 mm | - | - | - |
| 1777905025 | 21.67° C | 72% | 1016.1 hPa | 0 mm | - | - | - |
| 1777904110 | 21.11° C | 74% | 1016 hPa | 0 mm | - | - | - |
| 1777903220 | 20.56° C | 73% | 1016 hPa | 0 mm | - | - | - |
| 1777902322 | 20° C | 74% | 1016.1 hPa | 0 mm | - | - | - |
| 1777901422 | 19.44° C | 76% | 1016.1 hPa | 0 mm | - | - | - |
| 1777900526 | 18.33° C | 77% | 1016.1 hPa | 0 mm | - | - | - |
| 1777899630 | 17.78° C | 78% | 1015.9 hPa | 0 mm | - | - | - |
| 1777898724 | 16.67° C | 80% | 1015.7 hPa | 0 mm | - | - | - |
| 1777897824 | 15° C | 82% | 1015.6 hPa | 0 mm | - | - | - |
| 1777896906 | 14.44° C | 83% | 1015.5 hPa | 0 mm | - | - | - |
| 1777896010 | 13.33° C | 84% | 1015.5 hPa | 0 mm | - | - | - |
| 1777895120 | 13.33° C | 85% | 1015.6 hPa | 0 mm | - | - | - |
| 1777894223 | 12.78° C | 85% | 1015.5 hPa | 0 mm | - | - | - |
| 1777893323 | 13.33° C | 85% | 1015.7 hPa | 0 mm | - | - | - |
| 1777892408 | 13.89° C | 83% | 1015.7 hPa | 0 mm | - | - | - |
| 1777891508 | 13.89° C | 83% | 1015.7 hPa | 0 mm | - | - | - |
| 1777889724 | 14.44° C | 82% | 1015.7 hPa | 0 mm | - | - | - |
| 1777888825 | 13.89° C | 82% | 1015.7 hPa | 0 mm | - | - | - |
| 1777887915 | 13.89° C | 82% | 1015.8 hPa | 0 mm | - | - | - |
| 1777887014 | 13.89° C | 82% | 1015.9 hPa | 0 mm | - | - | - |
| 1777886124 | 14.44° C | 82% | 1016 hPa | 0 mm | - | - | - |
* Rain latest hour (hover to see other rain measurements)
** Current wind speed in m/s (hover to see current wind gust speed)